Time;durP1;ratioP1;P1;durP2;ratioP2;P2;SDS_P1;SDS_P2;PMS_P1;PMS_P2;Temp;Humidity;BMP_temperature;BMP_pressure;BME280_temperature;BME280_humidity;BME280_pressure;Samples;Min_cycle;Max_cycle;Signal;HPM_P1;HPM_P2
2022/11/12 00:00:46;;;;;;;3.87;2.40;;;5.60;98.00;;;;;;5016998;28;20450;-67
2022/11/12 00:03:13;;;;;;;5.27;3.20;;;5.40;98.00;;;;;;5034473;28;20456;-67
2022/11/12 00:05:40;;;;;;;7.13;3.10;;;5.30;98.00;;;;;;5034136;28;20917;-66
2022/11/12 00:08:07;;;;;;;6.33;3.03;;;5.30;98.00;;;;;;5034054;28;20865;-67
2022/11/12 00:10:35;;;;;;;6.00;3.37;;;5.30;98.00;;;;;;5034190;28;20463;-67
2022/11/12 00:13:02;;;;;;;5.57;3.17;;;5.30;98.00;;;;;;5033322;28;20459;-67
2022/11/12 00:15:29;;;;;;;6.57;2.63;;;5.30;98.00;;;;;;5033915;28;20491;-66
2022/11/12 00:17:58;;;;;;;7.20;3.63;;;5.40;98.00;;;;;;5033960;28;20481;-66
2022/11/12 00:20:32;;;;;;;7.47;3.57;;;5.30;98.00;;;;;;5033875;28;20455;-67
2022/11/12 00:22:59;;;;;;;5.07;3.07;;;5.20;98.00;;;;;;5002255;28;20512;-66
2022/11/12 00:25:27;;;;;;;4.40;3.03;;;5.20;98.00;;;;;;5033854;28;20834;-67
2022/11/12 00:27:54;;;;;;;5.20;3.10;;;5.30;98.00;;;;;;5033616;28;20458;-67
2022/11/12 00:30:21;;;;;;;4.90;2.70;;;5.40;98.00;;;;;;5033926;28;20451;-67
2022/11/12 00:32:48;;;;;;;3.50;2.50;;;5.60;98.00;;;;;;5016238;28;20809;-67
2022/11/12 00:35:17;;;;;;;7.40;2.60;;;5.50;98.00;;;;;;5016282;28;20491;-67
2022/11/12 00:37:44;;;;;;;6.60;3.40;;;5.50;98.00;;;;;;5033565;28;20949;-66
2022/11/12 00:40:11;;;;;;;4.20;2.90;;;5.40;98.00;;;;;;5033617;28;21010;-67
2022/11/12 00:42:38;;;;;;;6.37;3.40;;;5.50;98.00;;;;;;5033382;28;20931;-67
2022/11/12 00:45:08;;;;;;;4.97;3.37;;;5.40;98.00;;;;;;5033614;28;20454;-67
2022/11/12 00:47:35;;;;;;;4.73;2.70;;;5.30;98.00;;;;;;5033495;28;20462;-67
2022/11/12 00:50:02;;;;;;;5.87;3.63;;;5.20;98.00;;;;;;5033004;28;20463;-67
2022/11/12 00:52:31;;;;;;;6.93;3.77;;;5.20;98.00;;;;;;5033189;28;20455;-66
2022/11/12 00:54:58;;;;;;;5.57;3.33;;;5.00;98.00;;;;;;5033235;28;21014;-67
2022/11/12 00:57:26;;;;;;;5.43;2.97;;;5.00;98.00;;;;;;5015488;28;20882;-66
2022/11/12 00:59:53;;;;;;;4.40;2.70;;;5.00;98.00;;;;;;5032817;28;20458;-66
2022/11/12 01:02:21;;;;;;;3.83;2.30;;;5.00;98.00;;;;;;5032516;28;20949;-66
2022/11/12 01:04:48;;;;;;;4.73;2.80;;;5.20;98.00;;;;;;5032318;28;20472;-67
2022/11/12 01:07:15;;;;;;;3.30;2.13;;;5.20;98.00;;;;;;5014820;28;20458;-67
2022/11/12 01:09:45;;;;;;;3.03;2.83;;;5.30;98.00;;;;;;5032729;28;20487;-67
2022/11/12 01:12:12;;;;;;;2.90;2.43;;;5.30;98.00;;;;;;5032778;28;20843;-67
2022/11/12 01:14:39;;;;;;;3.53;2.50;;;5.30;98.00;;;;;;5032621;28;20477;-67
2022/11/12 01:17:06;;;;;;;6.13;2.90;;;5.30;98.00;;;;;;5032887;28;20465;-67
2022/11/12 01:19:33;;;;;;;3.33;2.53;;;5.10;98.00;;;;;;5032630;28;20468;-66
2022/11/12 01:22:01;;;;;;;6.13;2.70;;;5.10;98.00;;;;;;5032600;28;20954;-67
2022/11/12 01:24:28;;;;;;;3.43;2.53;;;5.10;98.00;;;;;;5032144;28;20462;-66
2022/11/12 01:26:56;;;;;;;2.93;2.70;;;5.20;98.00;;;;;;5032535;28;20953;-66
2022/11/12 01:29:24;;;;;;;5.10;3.00;;;5.30;98.00;;;;;;5032839;28;20456;-66
2022/11/12 01:31:51;;;;;;;4.03;2.90;;;5.50;98.00;;;;;;5015424;28;20459;-66
2022/11/12 01:34:18;;;;;;;3.50;2.70;;;5.50;98.00;;;;;;5032241;28;20887;-67
2022/11/12 01:36:45;;;;;;;5.23;2.90;;;5.60;98.00;;;;;;5032411;28;20454;-67
2022/11/12 01:39:14;;;;;;;6.77;3.27;;;5.60;98.00;;;;;;5032915;28;20888;-66
2022/11/12 01:41:42;;;;;;;5.33;2.80;;;5.60;98.00;;;;;;5032356;28;20458;-67
2022/11/12 01:44:19;;;;;;;4.60;2.47;;;5.40;98.00;;;;;;5032757;28;20459;-66
2022/11/12 01:46:58;;;;;;;4.07;2.80;;;5.10;98.00;;;;;;5032331;28;20466;-66
2022/11/12 01:49:29;;;;;;;7.87;3.07;;;5.00;98.00;;;;;;5032400;28;20460;-66
2022/11/12 01:52:03;;;;;;;4.67;2.47;;;5.10;98.00;;;;;;5031879;28;20460;-67
2022/11/12 01:54:31;;;;;;;3.73;2.37;;;5.10;98.00;;;;;;5032190;28;20489;-67
2022/11/12 01:57:02;;;;;;;4.00;2.30;;;5.10;98.00;;;;;;5031886;28;20849;-66
2022/11/12 01:59:37;;;;;;;3.20;2.03;;;5.10;98.00;;;;;;5032239;28;20458;-67
2022/11/12 02:02:05;;;;;;;2.10;1.90;;;5.20;98.00;;;;;;5031155;28;20458;-67
2022/11/12 02:04:34;;;;;;;4.23;2.63;;;5.10;98.00;;;;;;5048094;28;20461;-67
2022/11/12 02:07:03;;;;;;;4.17;2.27;;;5.00;98.00;;;;;;5051780;28;20469;-66
2022/11/12 02:09:31;;;;;;;3.27;2.13;;;4.80;98.00;;;;;;5051597;28;20950;-67
2022/11/12 02:11:59;;;;;;;4.37;1.80;;;4.70;98.00;;;;;;5034027;28;20451;-67
2022/11/12 02:14:25;;;;;;;2.80;1.80;;;4.70;98.00;;;;;;5051840;28;20462;-66
2022/11/12 02:16:54;;;;;;;5.33;2.83;;;4.80;98.00;;;;;;5034114;28;20478;-66
2022/11/12 02:19:23;;;;;;;2.83;2.07;;;4.80;98.00;;;;;;5051802;28;20458;-67
2022/11/12 02:21:51;;;;;;;4.80;1.83;;;4.90;98.00;;;;;;5034251;28;20861;-67
2022/11/12 02:24:39;;;;;;;2.43;2.03;;;4.90;98.00;;;;;;5051730;28;20523;-66
2022/11/12 02:27:07;;;;;;;3.87;2.03;;;4.70;98.00;;;;;;5034716;28;20457;-66
2022/11/12 02:29:45;;;;;;;2.87;2.67;;;4.80;98.00;;;;;;5051901;28;20465;-66
2022/11/12 02:32:12;;;;;;;4.37;2.60;;;4.80;98.00;;;;;;5051961;28;20465;-66
2022/11/12 02:34:39;;;;;;;4.33;2.53;;;4.70;98.00;;;;;;5051763;28;20535;-67
2022/11/12 02:37:08;;;;;;;3.57;2.30;;;4.70;98.00;;;;;;5051675;28;20553;-67
2022/11/12 02:39:35;;;;;;;3.10;2.50;;;4.70;98.00;;;;;;5051819;28;20798;-67
2022/11/12 02:42:02;;;;;;;1.80;1.70;;;4.80;98.00;;;;;;5051873;28;20458;-66
2022/11/12 02:44:30;;;;;;;3.50;2.47;;;4.60;98.00;;;;;;5052298;28;20456;-66
2022/11/12 02:46:58;;;;;;;3.70;2.67;;;4.70;98.00;;;;;;5051637;28;20464;-66
2022/11/12 02:49:25;;;;;;;2.27;1.80;;;4.90;98.00;;;;;;5051074;28;20521;-67
2022/11/12 02:51:52;;;;;;;2.73;2.30;;;5.00;98.00;;;;;;5051143;28;20458;-66
2022/11/12 02:54:21;;;;;;;2.27;2.07;;;5.00;98.00;;;;;;5051301;28;20952;-67
2022/11/12 02:56:48;;;;;;;7.10;2.70;;;4.90;98.00;;;;;;5051076;28;20520;-67
2022/11/12 02:59:15;;;;;;;3.00;2.33;;;4.90;98.00;;;;;;5051450;28;20458;-67
2022/11/12 03:01:42;;;;;;;4.20;2.50;;;5.00;98.00;;;;;;5051242;28;20861;-67
2022/11/12 03:04:09;;;;;;;4.90;3.37;;;5.00;98.00;;;;;;5051279;28;20816;-67
2022/11/12 03:06:36;;;;;;;3.40;2.33;;;4.80;98.00;;;;;;5051202;28;20463;-66
2022/11/12 03:09:04;;;;;;;2.90;1.80;;;4.90;98.00;;;;;;5051215;28;21027;-67
2022/11/12 03:11:32;;;;;;;4.70;2.57;;;4.70;98.00;;;;;;5051222;28;20816;-66
2022/11/12 03:14:01;;;;;;;2.50;2.23;;;4.60;98.00;;;;;;5053330;28;20466;-66
2022/11/12 03:16:28;;;;;;;4.13;2.87;;;4.50;98.00;;;;;;5054888;28;20484;-66
2022/11/12 03:18:55;;;;;;;4.03;3.13;;;4.40;98.00;;;;;;5037065;28;20464;-66
2022/11/12 03:21:22;;;;;;;2.13;1.77;;;4.40;98.00;;;;;;5055076;28;20527;-66
2022/11/12 03:23:49;;;;;;;4.40;2.20;;;4.40;98.00;;;;;;5054920;28;20468;-66
2022/11/12 03:26:16;;;;;;;3.07;2.23;;;4.40;98.00;;;;;;5037236;28;20460;-67
2022/11/12 03:28:45;;;;;;;3.73;1.73;;;4.40;98.00;;;;;;5054836;28;20457;-67
2022/11/12 03:31:12;;;;;;;1.83;1.80;;;4.40;98.00;;;;;;5055023;28;20922;-67
2022/11/12 03:33:39;;;;;;;1.77;1.70;;;4.30;98.00;;;;;;5054832;28;20461;-66
2022/11/12 03:36:07;;;;;;;2.53;2.00;;;4.20;98.00;;;;;;5055015;28;20871;-67
2022/11/12 03:38:34;;;;;;;3.47;2.30;;;4.20;98.00;;;;;;5054870;28;20469;-67
2022/11/12 03:41:01;;;;;;;4.33;2.30;;;4.40;98.00;;;;;;5054446;28;20464;-66
2022/11/12 03:43:29;;;;;;;5.30;2.70;;;4.60;98.00;;;;;;5036920;28;20465;-67
2022/11/12 03:45:58;;;;;;;3.23;2.50;;;4.60;98.00;;;;;;5054285;28;20583;-66
2022/11/12 03:48:25;;;;;;;9.30;2.60;;;4.40;98.00;;;;;;5054425;28;20468;-66
2022/11/12 03:50:52;;;;;;;3.63;1.97;;;4.30;98.00;;;;;;5054531;28;20460;-67
2022/11/12 03:53:19;;;;;;;5.40;2.27;;;4.40;98.00;;;;;;5054314;28;20457;-66
2022/11/12 03:55:46;;;;;;;3.00;1.87;;;4.60;98.00;;;;;;5054222;28;21016;-67
2022/11/12 03:58:13;;;;;;;1.80;1.77;;;4.50;98.00;;;;;;5054033;28;20452;-66
2022/11/12 04:00:40;;;;;;;6.20;2.60;;;4.40;98.00;;;;;;5054378;28;20469;-66
2022/11/12 04:03:09;;;;;;;7.90;2.47;;;4.40;98.00;;;;;;5035717;28;20465;-66
2022/11/12 04:08:37;;;;;;;5.50;3.03;;;4.50;98.00;;;;;;4997069;28;20467;-66
2022/11/12 04:11:08;;;;;;;5.83;2.50;;;4.50;98.00;;;;;;5054104;28;20521;-67
2022/11/12 04:13:37;;;;;;;2.50;2.03;;;4.50;98.00;;;;;;5054278;28;20488;-66
2022/11/12 04:21:54;;;;;;;3.13;2.13;;;4.60;98.00;;;;;;5053875;28;20442;-67
2022/11/12 04:27:13;;;;;;;3.73;2.07;;;4.60;98.00;;;;;;5054056;28;20445;-67
2022/11/12 04:32:25;;;;;;;6.40;2.33;;;4.70;98.00;;;;;;5053846;28;20462;-67
2022/11/12 04:34:54;;;;;;;7.47;2.73;;;4.60;98.00;;;;;;5053099;28;20536;-66
2022/11/12 04:37:22;;;;;;;4.50;2.23;;;4.60;98.00;;;;;;5053094;28;20456;-66
2022/11/12 04:39:49;;;;;;;5.20;3.10;;;4.50;98.00;;;;;;5053272;28;20471;-67
2022/11/12 04:45:12;;;;;;;3.83;2.00;;;4.40;98.00;;;;;;4991731;28;20547;-67
2022/11/12 04:47:45;;;;;;;2.87;2.27;;;4.40;98.00;;;;;;5037515;28;20824;-66
2022/11/12 04:50:16;;;;;;;6.30;2.77;;;4.40;98.00;;;;;;5053303;28;20467;-67
2022/11/12 04:52:43;;;;;;;5.10;2.53;;;4.50;98.00;;;;;;5053052;28;20475;-67
2022/11/12 04:55:11;;;;;;;2.63;2.27;;;4.70;98.00;;;;;;5053033;28;20498;-67
2022/11/12 04:57:38;;;;;;;5.47;1.90;;;4.80;98.00;;;;;;5053037;28;20463;-67
2022/11/12 05:00:07;;;;;;;4.17;2.50;;;4.70;98.00;;;;;;5053395;28;20476;-67
2022/11/12 05:02:34;;;;;;;5.33;2.80;;;4.80;98.00;;;;;;5052993;28;20464;-66
2022/11/12 05:05:02;;;;;;;6.57;2.60;;;4.70;98.00;;;;;;5052997;28;20936;-66
2022/11/12 05:07:32;;;;;;;3.20;2.23;;;4.70;98.00;;;;;;5052961;28;20489;-67
2022/11/12 05:09:59;;;;;;;3.60;2.10;;;4.90;98.00;;;;;;5053152;28;20463;-67
2022/11/12 05:12:26;;;;;;;4.03;2.93;;;4.90;98.00;;;;;;5035190;28;20463;-66
2022/11/12 05:14:54;;;;;;;3.27;2.60;;;4.80;98.00;;;;;;5052809;28;20526;-67
2022/11/12 05:17:21;;;;;;;5.43;2.57;;;4.80;98.00;;;;;;5052839;28;20495;-66
2022/11/12 05:19:49;;;;;;;2.60;2.30;;;4.70;98.00;;;;;;5052870;28;20458;-66
2022/11/12 05:22:16;;;;;;;3.43;2.37;;;4.80;98.00;;;;;;5052891;28;20461;-66
2022/11/12 05:24:47;;;;;;;3.67;2.47;;;4.80;98.00;;;;;;5052499;28;20525;-66
2022/11/12 05:27:15;;;;;;;2.90;1.90;;;4.70;98.00;;;;;;5035098;28;20459;-66
2022/11/12 05:29:43;;;;;;;2.00;1.90;;;4.60;98.00;;;;;;5052439;28;20848;-66
2022/11/12 05:32:12;;;;;;;4.13;2.30;;;4.50;98.00;;;;;;5052365;28;20463;-66
2022/11/12 05:34:40;;;;;;;2.23;1.67;;;4.40;98.00;;;;;;5052182;28;20459;-66
2022/11/12 05:37:09;;;;;;;4.33;2.60;;;4.30;98.00;;;;;;5052049;28;20488;-66
2022/11/12 05:39:36;;;;;;;4.03;1.97;;;4.30;98.00;;;;;;5052307;28;20868;-66
2022/11/12 05:42:05;;;;;;;3.23;2.13;;;4.40;98.00;;;;;;5052132;28;20605;-67
2022/11/12 05:44:32;;;;;;;2.90;1.90;;;4.40;98.00;;;;;;5052172;28;20944;-67
2022/11/12 05:47:00;;;;;;;3.23;2.47;;;4.30;98.00;;;;;;5052407;28;20458;-67
2022/11/12 05:49:27;;;;;;;5.87;2.50;;;4.30;98.00;;;;;;5052088;28;20470;-67
2022/11/12 05:51:54;;;;;;;2.90;2.20;;;4.40;98.00;;;;;;5052172;28;20463;-67
2022/11/12 05:54:21;;;;;;;4.80;3.03;;;4.50;98.00;;;;;;5052139;28;20931;-66
2022/11/12 05:56:48;;;;;;;6.83;3.20;;;4.40;98.00;;;;;;5051888;28;20511;-66
2022/11/12 05:59:17;;;;;;;2.93;2.23;;;4.30;98.00;;;;;;5052342;28;20477;-66
2022/11/12 06:01:44;;;;;;;3.87;2.20;;;4.30;98.00;;;;;;5051954;28;20466;-66
2022/11/12 06:04:15;;;;;;;4.43;2.70;;;4.40;98.00;;;;;;5052176;28;20807;-67
2022/11/12 06:06:43;;;;;;;4.30;2.47;;;4.50;98.00;;;;;;5051849;28;20461;-66
2022/11/12 06:09:11;;;;;;;5.80;2.20;;;4.50;98.00;;;;;;5052202;28;20462;-66
2022/11/12 06:11:40;;;;;;;4.17;2.33;;;4.50;98.00;;;;;;5052094;28;20974;-66
2022/11/12 06:14:08;;;;;;;3.73;2.53;;;4.60;98.00;;;;;;5052192;28;20456;-66
2022/11/12 06:16:39;;;;;;;3.70;2.30;;;4.40;98.00;;;;;;5034258;28;21011;-67
2022/11/12 06:19:06;;;;;;;4.97;2.30;;;4.30;98.00;;;;;;5051649;28;20464;-66
2022/11/12 06:21:33;;;;;;;5.50;2.13;;;4.20;98.00;;;;;;5051719;28;20497;-66
2022/11/12 06:24:01;;;;;;;5.07;3.10;;;4.20;98.00;;;;;;5052652;28;20522;-67
2022/11/12 06:26:29;;;;;;;3.07;2.20;;;4.10;98.00;;;;;;5034315;28;20471;-66
2022/11/12 06:28:57;;;;;;;5.70;2.30;;;4.10;98.00;;;;;;5051670;28;20550;-66
2022/11/12 06:31:24;;;;;;;4.03;2.70;;;4.20;98.00;;;;;;5051729;28;20469;-66
2022/11/12 06:33:56;;;;;;;9.73;3.20;;;4.10;98.00;;;;;;5051668;28;20457;-66
2022/11/12 06:36:23;;;;;;;5.60;2.40;;;4.20;98.00;;;;;;5051845;28;20980;-67
2022/11/12 06:38:51;;;;;;;3.60;2.10;;;4.20;98.00;;;;;;5051578;28;20456;-66
2022/11/12 06:41:18;;;;;;;4.97;2.10;;;4.30;98.00;;;;;;5051517;28;20459;-66
2022/11/12 06:43:46;;;;;;;3.57;2.70;;;4.20;98.00;;;;;;5051406;28;20458;-66
2022/11/12 06:46:17;;;;;;;4.63;2.63;;;4.20;98.00;;;;;;5051696;28;20476;-66
2022/11/12 06:48:44;;;;;;;1.70;1.53;;;4.00;98.00;;;;;;5053060;28;20466;-67
2022/11/12 06:51:16;;;;;;;4.17;2.07;;;3.90;98.00;;;;;;5054911;28;20873;-66
2022/11/12 06:53:44;;;;;;;2.70;2.07;;;4.00;98.00;;;;;;5054794;28;20538;-67
2022/11/12 06:56:11;;;;;;;3.87;2.10;;;3.90;98.00;;;;;;5054590;28;20531;-67
2022/11/12 06:58:38;;;;;;;3.43;2.30;;;4.00;98.00;;;;;;5055427;28;20805;-66
2022/11/12 07:01:08;;;;;;;3.70;1.90;;;4.10;98.00;;;;;;5055731;28;20524;-67
2022/11/12 07:03:35;;;;;;;3.13;2.00;;;4.20;98.00;;;;;;5055383;28;20456;-67
2022/11/12 07:06:07;;;;;;;4.30;2.67;;;4.40;98.00;;;;;;5055446;28;20460;-66
2022/11/12 07:08:36;;;;;;;3.67;2.60;;;4.50;98.00;;;;;;5055370;28;20946;-66
2022/11/12 07:11:03;;;;;;;3.27;2.10;;;4.40;98.00;;;;;;5054892;28;20464;-66
2022/11/12 07:13:33;;;;;;;3.23;2.47;;;4.40;98.00;;;;;;5054925;28;20514;-66
2022/11/12 07:16:01;;;;;;;6.20;2.67;;;4.60;98.00;;;;;;5055140;28;20545;-67
2022/11/12 07:18:29;;;;;;;3.93;2.37;;;4.60;98.00;;;;;;5054728;28;20475;-66
2022/11/12 07:21:02;;;;;;;4.97;2.77;;;4.60;98.00;;;;;;5054946;28;20959;-67
2022/11/12 07:23:31;;;;;;;3.10;2.17;;;4.60;98.00;;;;;;5055081;28;20459;-67
2022/11/12 07:26:02;;;;;;;3.87;2.60;;;4.80;98.00;;;;;;5054436;28;20558;-67
2022/11/12 07:28:30;;;;;;;2.37;2.13;;;4.90;98.00;;;;;;5054746;28;20456;-63
2022/11/12 07:30:58;;;;;;;5.77;2.80;;;4.90;98.00;;;;;;5054801;28;20469;-64
2022/11/12 07:33:27;;;;;;;7.43;2.90;;;5.00;98.00;;;;;;5054498;28;20495;-64
2022/11/12 07:35:58;;;;;;;4.57;2.23;;;5.00;98.00;;;;;;5054681;28;20460;-64
2022/11/12 07:38:26;;;;;;;4.47;3.30;;;5.20;98.00;;;;;;5053591;28;20542;-64
2022/11/12 07:41:04;;;;;;;4.30;2.80;;;5.20;98.00;;;;;;5054020;28;20491;-64
2022/11/12 07:43:33;;;;;;;3.47;2.17;;;5.20;98.00;;;;;;5054401;28;20450;-64
2022/11/12 07:46:02;;;;;;;4.30;2.70;;;5.20;98.00;;;;;;5054770;28;20514;-64
2022/11/12 07:48:30;;;;;;;4.43;3.17;;;5.30;98.00;;;;;;5054621;28;20453;-64
2022/11/12 07:51:01;;;;;;;4.30;3.27;;;5.30;98.00;;;;;;5054810;28;20475;-64
2022/11/12 07:53:28;;;;;;;7.03;2.90;;;5.30;98.00;;;;;;5054610;28;20936;-63
2022/11/12 07:55:57;;;;;;;7.70;3.73;;;5.30;98.00;;;;;;5054168;28;20849;-64
2022/11/12 07:58:27;;;;;;;7.67;3.20;;;5.40;98.00;;;;;;5037174;28;20518;-64
2022/11/12 08:00:55;;;;;;;4.07;2.83;;;5.40;98.00;;;;;;5053174;28;20469;-64
2022/11/12 08:03:22;;;;;;;4.33;2.50;;;5.30;98.00;;;;;;5054555;28;20456;-64
2022/11/12 08:05:49;;;;;;;7.10;3.10;;;5.30;98.00;;;;;;5054122;28;20463;-64
2022/11/12 08:08:16;;;;;;;8.87;3.50;;;5.30;98.00;;;;;;5053720;28;20464;-63
2022/11/12 08:10:43;;;;;;;4.80;3.00;;;5.30;98.00;;;;;;5053949;28;20973;-64
2022/11/12 08:13:11;;;;;;;7.40;3.70;;;5.30;98.00;;;;;;5053992;28;20460;-64
2022/11/12 08:15:39;;;;;;;7.23;3.30;;;5.40;98.00;;;;;;5053410;28;20892;-64
2022/11/12 08:18:07;;;;;;;4.07;2.67;;;5.40;98.00;;;;;;5053319;28;20515;-64
2022/11/12 08:20:34;;;;;;;7.73;4.00;;;5.50;98.00;;;;;;5036191;28;20463;-64
2022/11/12 08:23:01;;;;;;;4.90;3.20;;;5.70;98.00;;;;;;5053337;28;20459;-64
2022/11/12 08:25:28;;;;;;;6.93;3.70;;;5.80;98.00;;;;;;5053140;28;20543;-64
2022/11/12 08:27:58;;;;;;;5.77;3.13;;;5.80;98.00;;;;;;5052842;28;20463;-64
2022/11/12 08:30:26;;;;;;;4.17;2.80;;;5.80;98.00;;;;;;5052866;28;20466;-63
2022/11/12 08:32:59;;;;;;;3.83;2.53;;;5.80;98.00;;;;;;5052752;28;20464;-64
2022/11/12 08:35:27;;;;;;;7.73;3.50;;;5.90;98.00;;;;;;5051897;28;20972;-64
2022/11/12 08:37:59;;;;;;;10.50;3.83;;;5.90;98.00;;;;;;5032381;28;20527;-64
2022/11/12 08:40:26;;;;;;;3.00;2.57;;;6.00;98.00;;;;;;5050437;28;20489;-64
2022/11/12 08:42:59;;;;;;;8.57;3.87;;;6.00;98.00;;;;;;5049965;28;20466;-64
2022/11/12 08:45:26;;;;;;;8.90;3.20;;;6.20;98.00;;;;;;5050445;28;20465;-64
2022/11/12 08:47:59;;;;;;;1.93;1.87;;;6.20;98.00;;;;;;5049915;28;20466;-65
2022/11/12 08:50:27;;;;;;;3.47;2.63;;;7.50;98.00;;;;;;5048193;28;20460;-66
2022/11/12 08:52:55;;;;;;;2.73;2.57;;;8.80;98.00;;;;;;5051022;28;20806;-65
2022/11/12 08:55:22;;;;;;;5.47;3.40;;;9.20;98.00;;;;;;5052521;28;20466;-64
2022/11/12 08:57:49;;;;;;;5.07;3.10;;;9.10;98.00;;;;;;5052451;28;20485;-64
2022/11/12 09:00:18;;;;;;;8.20;3.30;;;9.00;98.00;;;;;;5052383;28;20467;-64
2022/11/12 09:02:45;;;;;;;6.37;3.03;;;8.80;98.00;;;;;;5034856;28;20463;-64
2022/11/12 09:05:14;;;;;;;7.57;3.70;;;8.70;98.00;;;;;;5052215;28;20962;-63
2022/11/12 09:07:41;;;;;;;7.50;3.23;;;8.50;98.00;;;;;;5051896;28;20461;-64
2022/11/12 09:10:08;;;;;;;4.97;3.20;;;8.40;98.00;;;;;;5052257;28;20518;-64
2022/11/12 09:12:35;;;;;;;4.33;3.27;;;8.30;98.00;;;;;;5051638;28;20464;-64
2022/11/12 09:15:02;;;;;;;5.17;3.27;;;8.30;98.00;;;;;;5052106;28;20522;-64
2022/11/12 09:17:29;;;;;;;4.80;3.60;;;8.30;98.00;;;;;;5051956;28;20849;-63
2022/11/12 09:19:56;;;;;;;6.53;3.03;;;8.30;98.00;;;;;;5051869;28;20455;-63
2022/11/12 09:22:36;;;;;;;10.60;3.10;;;8.20;98.00;;;;;;5051761;28;20465;-64
2022/11/12 09:25:03;;;;;;;5.40;3.17;;;8.20;98.00;;;;;;5051865;28;20457;-64
2022/11/12 09:27:30;;;;;;;4.60;2.60;;;8.20;98.00;;;;;;5034163;28;20452;-65
2022/11/12 09:29:57;;;;;;;5.33;3.23;;;8.30;98.00;;;;;;5051829;28;20467;-64
2022/11/12 09:32:24;;;;;;;3.93;2.87;;;8.30;98.00;;;;;;5034084;28;20456;-63
2022/11/12 09:34:52;;;;;;;5.27;2.70;;;8.40;98.00;;;;;;5051962;28;20461;-64
2022/11/12 09:37:19;;;;;;;5.03;2.33;;;8.30;98.00;;;;;;5051530;28;20488;-64
2022/11/12 09:39:47;;;;;;;8.77;3.53;;;8.30;98.00;;;;;;5033942;28;20661;-63
2022/11/12 09:42:18;;;;;;;3.87;2.60;;;8.40;98.00;;;;;;5051348;28;20461;-63
2022/11/12 09:44:55;;;;;;;7.90;2.93;;;8.50;98.00;;;;;;5051659;28;20464;-64
2022/11/12 09:47:27;;;;;;;8.70;3.20;;;8.60;98.00;;;;;;5035055;28;20461;-64
2022/11/12 09:50:01;;;;;;;11.63;2.87;;;8.80;98.00;;;;;;5051662;28;20460;-63
2022/11/12 09:52:29;;;;;;;5.53;2.90;;;8.70;98.00;;;;;;5051925;28;20457;-64
2022/11/12 09:55:05;;;;;;;6.30;3.00;;;8.80;98.00;;;;;;5051523;28;20954;-63
2022/11/12 09:57:34;;;;;;;4.53;2.87;;;8.90;98.00;;;;;;5051623;28;20510;-63
2022/11/12 10:00:02;;;;;;;5.73;2.87;;;8.90;98.00;;;;;;5051353;28;20464;-64
2022/11/12 10:02:35;;;;;;;6.70;3.13;;;9.00;98.00;;;;;;5051130;28;20461;-64
2022/11/12 10:05:17;;;;;;;3.50;2.77;;;9.20;98.00;;;;;;5034062;28;20461;-64
2022/11/12 10:08:02;;;;;;;4.57;2.80;;;9.20;98.00;;;;;;5051015;28;20449;-64
2022/11/12 10:10:41;;;;;;;5.50;3.57;;;9.40;98.00;;;;;;5050321;28;20535;-64
2022/11/12 10:13:24;;;;;;;8.17;3.27;;;9.40;98.00;;;;;;5050762;28;20488;-64
2022/11/12 10:19:14;;;;;;;5.97;3.80;;;9.60;98.00;;;;;;5051271;28;20502;-64
2022/11/12 10:21:50;;;;;;;9.90;4.73;;;9.80;98.00;;;;;;5051080;28;20480;-64
2022/11/12 10:24:20;;;;;;;4.40;3.00;;;10.00;98.00;;;;;;5050348;28;20471;-64
2022/11/12 10:26:49;;;;;;;5.93;3.30;;;10.20;98.00;;;;;;5051153;28;20461;-64
2022/11/12 10:29:27;;;;;;;6.33;3.50;;;10.30;98.00;;;;;;5051374;28;20873;-64
2022/11/12 10:31:54;;;;;;;7.67;2.93;;;10.30;98.00;;;;;;5050993;28;20453;-64
2022/11/12 10:34:22;;;;;;;6.60;3.80;;;10.30;98.00;;;;;;5050883;28;20460;-64
2022/11/12 10:36:53;;;;;;;5.90;3.13;;;10.50;98.00;;;;;;5051049;28;20993;-64
2022/11/12 10:39:35;;;;;;;7.70;3.50;;;10.70;98.00;;;;;;5050882;28;20468;-64
2022/11/12 10:42:06;;;;;;;5.60;3.40;;;10.80;98.00;;;;;;5050959;28;20884;-64
2022/11/12 10:44:34;;;;;;;4.33;2.83;;;10.90;98.00;;;;;;5050952;28;20500;-64
2022/11/12 10:47:28;;;;;;;9.97;3.93;;;11.00;98.00;;;;;;5051074;28;20464;-64
2022/11/12 10:50:15;;;;;;;9.93;3.73;;;11.20;98.00;;;;;;5051093;28;20501;-64
2022/11/12 10:52:53;;;;;;;6.50;3.73;;;11.30;98.00;;;;;;5050866;28;20460;-63
2022/11/12 10:55:22;;;;;;;6.13;3.53;;;11.40;98.00;;;;;;5050750;28;20490;-64
2022/11/12 10:58:15;;;;;;;5.27;2.87;;;11.60;98.00;;;;;;5050500;28;20497;-64
2022/11/12 11:00:54;;;;;;;7.37;3.70;;;11.70;98.00;;;;;;5034344;28;20701;-64
2022/11/12 11:03:24;;;;;;;6.23;3.23;;;11.70;98.00;;;;;;5050968;28;20929;-64
2022/11/12 11:05:55;;;;;;;6.17;3.57;;;11.80;98.00;;;;;;5050659;28;20546;-64
2022/11/12 11:08:33;;;;;;;6.80;3.30;;;12.00;98.00;;;;;;5050864;28;20462;-64
2022/11/12 11:11:18;;;;;;;7.03;3.30;;;12.00;98.00;;;;;;5050882;28;20951;-64
2022/11/12 11:13:47;;;;;;;6.77;3.50;;;12.10;98.00;;;;;;5032993;28;20887;-64
2022/11/12 11:16:16;;;;;;;6.53;3.40;;;12.20;98.00;;;;;;5050842;28;20943;-64
2022/11/12 11:18:48;;;;;;;6.67;3.23;;;12.30;98.00;;;;;;5050124;28;20487;-64
2022/11/12 11:21:39;;;;;;;7.03;3.23;;;12.50;98.00;;;;;;5050493;28;20453;-64
2022/11/12 11:24:21;;;;;;;5.80;3.30;;;12.70;98.00;;;;;;5046775;28;20451;-64
2022/11/12 11:26:56;;;;;;;7.43;3.53;;;12.90;98.00;;;;;;5050255;28;20540;-65
2022/11/12 11:29:51;;;;;;;4.60;2.90;;;13.10;98.00;;;;;;5050503;28;20548;-70
2022/11/12 11:32:33;;;;;;;11.93;4.20;;;13.30;98.00;;;;;;5041076;28;20463;-64
2022/11/12 11:35:12;;;;;;;6.23;3.40;;;13.60;98.00;;;;;;5052414;28;20468;-65
2022/11/12 11:37:52;;;;;;;6.00;3.50;;;13.60;98.00;;;;;;5053963;28;20489;-64
2022/11/12 11:40:26;;;;;;;8.60;3.57;;;13.70;98.00;;;;;;5054500;28;20518;-64
2022/11/12 11:43:25;;;;;;;5.97;3.70;;;13.70;98.00;;;;;;5054067;28;20513;-65
2022/11/12 11:46:06;;;;;;;8.07;3.47;;;13.90;98.00;;;;;;5052908;28;20465;-65
2022/11/12 11:48:42;;;;;;;6.80;3.53;;;14.10;98.00;;;;;;5053694;28;20458;-62
2022/11/12 11:51:24;;;;;;;5.33;3.40;;;14.30;98.00;;;;;;5053847;28;20459;-64
2022/11/12 11:53:59;;;;;;;5.13;3.23;;;14.20;98.00;;;;;;5053560;28;20450;-64
2022/11/12 11:56:28;;;;;;;6.20;2.90;;;14.20;98.00;;;;;;5053246;28;20548;-64
2022/11/12 11:59:20;;;;;;;5.70;3.43;;;14.30;98.00;;;;;;5035795;28;20488;-64
2022/11/12 12:02:17;;;;;;;4.23;3.10;;;14.30;98.00;;;;;;5053434;28;20473;-64
2022/11/12 12:04:48;;;;;;;6.73;3.60;;;14.30;98.00;;;;;;5053547;28;20461;-65
2022/11/12 12:07:25;;;;;;;6.40;3.30;;;14.40;98.00;;;;;;5053220;28;20452;-64
2022/11/12 12:09:57;;;;;;;7.03;3.30;;;14.50;98.00;;;;;;5053282;28;20464;-65
2022/11/12 12:12:39;;;;;;;6.33;3.17;;;14.50;98.00;;;;;;5053585;28;20482;-65
2022/11/12 12:15:37;;;;;;;4.87;3.20;;;14.70;98.00;;;;;;5053248;28;20455;-65
2022/11/12 12:18:17;;;;;;;5.67;3.30;;;14.70;98.00;;;;;;5050884;28;20554;-64
2022/11/12 12:20:51;;;;;;;7.10;3.73;;;14.70;98.00;;;;;;5053108;28;20465;-65
2022/11/12 12:23:26;;;;;;;7.27;3.40;;;14.80;98.00;;;;;;5053425;28;20992;-65
2022/11/12 12:25:56;;;;;;;5.43;3.20;;;14.90;98.00;;;;;;5035432;28;20474;-64
2022/11/12 12:28:34;;;;;;;4.77;3.10;;;15.00;98.00;;;;;;5053227;28;20458;-65
2022/11/12 12:31:07;;;;;;;6.83;3.67;;;15.10;98.00;;;;;;5053267;28;20459;-65
2022/11/12 12:33:43;;;;;;;5.37;3.00;;;15.20;98.00;;;;;;5053158;28;20459;-65
2022/11/12 12:36:14;;;;;;;6.73;3.97;;;15.40;98.00;;;;;;5053089;28;20556;-65
2022/11/12 12:38:46;;;;;;;6.80;3.50;;;15.50;98.00;;;;;;5052760;28;21006;-64
2022/11/12 12:41:19;;;;;;;6.23;3.67;;;15.50;98.00;;;;;;5052763;28;20489;-64
2022/11/12 12:43:52;;;;;;;8.70;4.00;;;15.50;98.00;;;;;;5035484;28;20496;-65
2022/11/12 12:46:27;;;;;;;5.10;3.17;;;15.50;98.00;;;;;;5052022;28;20515;-65
2022/11/12 12:48:59;;;;;;;5.57;3.43;;;15.40;98.00;;;;;;5052340;28;20462;-65
2022/11/12 12:51:29;;;;;;;5.93;3.27;;;15.50;98.00;;;;;;5052565;28;20514;-64
2022/11/12 12:53:57;;;;;;;4.43;2.87;;;15.50;98.00;;;;;;5035101;28;20834;-65
2022/11/12 12:56:47;;;;;;;6.37;3.40;;;15.50;98.00;;;;;;5052425;28;20470;-64
2022/11/12 12:59:24;;;;;;;7.77;4.00;;;15.50;98.00;;;;;;5053234;28;20901;-65
2022/11/12 13:01:57;;;;;;;8.53;3.00;;;15.50;98.00;;;;;;5052287;28;21029;-65
2022/11/12 13:04:54;;;;;;;5.03;2.97;;;15.70;98.00;;;;;;5052582;28;21019;-65
2022/11/12 13:07:41;;;;;;;5.70;3.50;;;15.80;98.00;;;;;;5052282;28;20459;-65
2022/11/12 13:10:53;;;;;;;5.13;3.27;;;15.80;98.00;;;;;;5052285;28;20829;-65
2022/11/12 13:13:34;;;;;;;4.40;3.07;;;15.90;98.00;;;;;;5006406;28;20453;-65
2022/11/12 13:16:02;;;;;;;6.00;3.20;;;15.90;98.00;;;;;;5052215;28;20471;-65
2022/11/12 13:19:00;;;;;;;6.83;3.70;;;15.90;98.00;;;;;;5052221;28;20978;-65
2022/11/12 13:21:30;;;;;;;8.43;3.37;;;15.80;98.00;;;;;;5032394;28;20456;-65
2022/11/12 13:24:09;;;;;;;7.30;3.53;;;15.60;98.00;;;;;;5052034;28;20454;-65
2022/11/12 13:26:51;;;;;;;7.70;3.70;;;15.60;98.00;;;;;;5052095;28;20457;-65
2022/11/12 13:29:40;;;;;;;6.37;3.33;;;15.60;98.00;;;;;;5052114;28;20557;-65
2022/11/12 13:32:30;;;;;;;9.50;3.43;;;15.60;98.00;;;;;;5043918;28;20959;-65
2022/11/12 13:35:20;;;;;;;5.43;3.23;;;15.50;98.00;;;;;;5051885;28;20947;-65